createdAt,value
2018-07-06T00:01:49.367Z,19.87
2018-07-06T00:04:34.885Z,20.01
2018-07-06T00:07:20.568Z,19.97
2018-07-06T00:10:06.247Z,20.08
2018-07-06T00:12:51.755Z,19.86
2018-07-06T00:15:31.965Z,19.75
2018-07-06T00:18:17.882Z,19.81
2018-07-06T00:21:03.351Z,19.66
2018-07-06T00:23:48.606Z,19.62
2018-07-06T00:26:34.036Z,19.56
2018-07-06T00:29:19.648Z,19.63
2018-07-06T00:32:05.137Z,19.69
2018-07-06T00:34:50.628Z,19.62
2018-07-06T00:37:36.343Z,19.56
2018-07-06T00:40:21.908Z,19.59
2018-07-06T00:43:07.501Z,19.51
2018-07-06T00:45:53.358Z,19.40
2018-07-06T00:48:38.870Z,19.44
2018-07-06T00:51:24.340Z,19.43
2018-07-06T00:54:09.814Z,19.50
2018-07-06T00:56:55.423Z,19.36
2018-07-06T00:59:40.921Z,19.40
2018-07-06T01:02:20.852Z,19.35
2018-07-06T01:05:06.265Z,19.26
2018-07-06T01:07:51.817Z,19.22
2018-07-06T01:10:37.284Z,19.25
2018-07-06T01:13:22.728Z,19.31
2018-07-06T01:16:08.300Z,19.45
2018-07-06T01:18:53.848Z,19.35
2018-07-06T01:21:39.364Z,19.28
2018-07-06T01:24:25.069Z,19.11
2018-07-06T01:27:10.544Z,19.11
2018-07-06T01:29:55.896Z,18.97
2018-07-06T01:32:35.587Z,18.95
2018-07-06T01:35:21.051Z,18.99
2018-07-06T01:38:06.890Z,18.83
2018-07-06T01:40:52.500Z,18.92
2018-07-06T01:43:37.939Z,18.96
2018-07-06T01:46:23.321Z,19.03
2018-07-06T01:49:08.956Z,19.03
2018-07-06T01:51:54.561Z,18.90
2018-07-06T01:54:40.325Z,18.82
2018-07-06T01:57:25.674Z,18.93
2018-07-06T02:00:05.152Z,18.91
2018-07-06T02:02:50.700Z,18.93
2018-07-06T02:05:36.206Z,18.68
2018-07-06T02:08:21.814Z,18.67
2018-07-06T02:11:07.362Z,18.54
2018-07-06T02:13:52.798Z,18.62
2018-07-06T02:16:38.484Z,18.62
2018-07-06T02:19:23.707Z,18.58
2018-07-06T02:22:09.199Z,18.63
2018-07-06T02:24:54.658Z,18.67
2018-07-06T02:27:40.055Z,18.66
2018-07-06T02:30:25.276Z,18.71
2018-07-06T02:33:10.728Z,18.66
2018-07-06T02:35:56.179Z,18.71
2018-07-06T02:38:41.529Z,18.64
2018-07-06T02:41:21.268Z,18.67
2018-07-06T02:44:00.883Z,18.62
2018-07-06T02:46:46.395Z,18.50
2018-07-06T02:49:26.068Z,18.44
2018-07-06T02:52:11.436Z,18.45
2018-07-06T02:54:56.957Z,18.49
2018-07-06T02:57:42.403Z,18.26
2018-07-06T03:00:27.724Z,18.26
2018-07-06T03:03:13.051Z,18.24
2018-07-06T03:05:58.492Z,18.16
2018-07-06T03:08:44.088Z,18.18
2018-07-06T03:11:29.538Z,18.30
2018-07-06T03:14:15.030Z,18.32
2018-07-06T03:17:00.405Z,18.33
2018-07-06T03:19:45.972Z,18.30
2018-07-06T03:22:31.509Z,18.26
2018-07-06T03:25:17.116Z,18.42
2018-07-06T03:28:02.817Z,18.38
2018-07-06T03:30:48.097Z,18.40
2018-07-06T03:33:33.459Z,18.35
2018-07-06T03:36:18.899Z,18.29
2018-07-06T03:38:58.658Z,18.35
2018-07-06T03:41:44.080Z,18.30
2018-07-06T03:44:29.647Z,18.46
2018-07-06T03:47:15.478Z,18.45
2018-07-06T03:50:01.146Z,18.40
2018-07-06T03:52:46.608Z,18.47
2018-07-06T03:55:31.977Z,18.48
2018-07-06T03:58:17.564Z,18.47
2018-07-06T04:01:03.279Z,18.37
2018-07-06T04:03:48.926Z,18.37
2018-07-06T04:06:34.545Z,18.22
2018-07-06T04:09:20.232Z,18.06
2018-07-06T04:12:05.861Z,17.94
2018-07-06T04:14:51.239Z,17.92
2018-07-06T04:17:36.987Z,17.93
2018-07-06T04:20:22.476Z,17.94
2018-07-06T04:23:02.428Z,18.07
2018-07-06T04:25:47.826Z,18.00
2018-07-06T04:28:33.276Z,17.95
2018-07-06T04:31:18.701Z,18.11
2018-07-06T04:34:04.249Z,18.17
2018-07-06T04:36:49.994Z,18.05
2018-07-06T04:39:35.691Z,18.26
2018-07-06T04:42:21.121Z,18.07
2018-07-06T04:45:06.517Z,18.03
2018-07-06T04:47:51.987Z,18.14
2018-07-06T04:50:37.432Z,17.99
2018-07-06T04:53:23.168Z,18.00
2018-07-06T04:56:08.835Z,17.96
2018-07-06T04:58:54.486Z,18.21
2018-07-06T05:01:40.245Z,18.22
2018-07-06T05:04:25.752Z,18.29
2018-07-06T05:07:05.408Z,18.15
2018-07-06T05:09:51.208Z,18.15
2018-07-06T05:12:36.550Z,18.27
2018-07-06T05:15:21.876Z,18.32
2018-07-06T05:18:07.204Z,18.09
2018-07-06T05:20:52.772Z,18.39
2018-07-06T05:23:38.324Z,18.68
2018-07-06T05:26:23.704Z,18.82
2018-07-06T05:29:09.092Z,18.83
2018-07-06T05:31:54.527Z,18.93
2018-07-06T05:34:40.605Z,18.90
2018-07-06T05:37:26.143Z,19.03
2018-07-06T05:40:11.584Z,18.90
2018-07-06T05:42:51.258Z,19.05
2018-07-06T05:45:36.672Z,19.24
2018-07-06T05:48:22.039Z,19.19
2018-07-06T05:51:07.337Z,19.29
2018-07-06T05:53:52.755Z,19.23
2018-07-06T05:56:38.765Z,18.97
2018-07-06T05:59:24.313Z,18.89
2018-07-06T06:02:09.866Z,18.98
2018-07-06T06:04:55.228Z,19.04
2018-07-06T06:07:24.708Z,19.16
2018-07-06T06:09:55.192Z,19.21
2018-07-06T06:12:30.556Z,19.34
2018-07-06T06:15:00.125Z,19.46
2018-07-06T06:17:28.802Z,19.44
2018-07-06T06:19:58.210Z,19.70
2018-07-06T06:22:28.106Z,19.60
2018-07-06T06:24:56.704Z,19.64
2018-07-06T06:27:25.208Z,19.62
2018-07-06T06:29:53.882Z,19.74
2018-07-06T06:32:23.820Z,19.48
2018-07-06T06:34:52.113Z,19.71
2018-07-06T06:37:20.749Z,19.50
2018-07-06T06:39:49.487Z,19.52
2018-07-06T06:42:18.139Z,19.64
2018-07-06T06:44:47.079Z,19.73
2018-07-06T06:47:15.897Z,19.79
2018-07-06T06:49:48.530Z,19.80
2018-07-06T06:52:17.419Z,20.10
2018-07-06T06:54:45.834Z,20.19
2018-07-06T06:57:14.703Z,20.25
2018-07-06T06:59:43.515Z,20.29
2018-07-06T07:02:12.250Z,20.43
2018-07-06T07:04:40.819Z,20.58
2018-07-06T07:07:09.358Z,20.77
2018-07-06T07:09:38.140Z,20.72
2018-07-06T07:12:06.594Z,20.67
2018-07-06T07:14:35.304Z,20.57
2018-07-06T07:17:04.157Z,20.45
2018-07-06T07:19:32.812Z,20.51
2018-07-06T07:22:03.304Z,20.78
2018-07-06T07:24:32.014Z,20.48
2018-07-06T07:27:01.315Z,20.21
2018-07-06T07:29:30.155Z,20.11
2018-07-06T07:31:59.668Z,20.17
2018-07-06T07:34:28.285Z,19.81
2018-07-06T07:36:57.228Z,20.00
2018-07-06T07:39:25.865Z,20.05
2018-07-06T07:41:54.804Z,20.20
2018-07-06T07:44:23.384Z,20.28
2018-07-06T07:46:51.920Z,20.41
2018-07-06T07:49:20.750Z,20.37
2018-07-06T07:52:07.665Z,20.38
2018-07-06T07:54:47.022Z,20.50
2018-07-06T07:57:16.157Z,20.53
2018-07-06T07:59:45.584Z,20.74
2018-07-06T08:02:15.369Z,20.95
2018-07-06T08:04:49.924Z,21.09
2018-07-06T08:07:19.820Z,21.00
2018-07-06T08:09:48.978Z,20.71
2018-07-06T08:12:21.153Z,20.92
2018-07-06T08:14:50.971Z,21.27
2018-07-06T08:17:19.645Z,21.46
2018-07-06T08:19:48.143Z,21.68
2018-07-06T08:22:17.485Z,21.98
2018-07-06T08:24:45.979Z,22.36
2018-07-06T08:27:18.290Z,22.44
2018-07-06T08:29:46.711Z,22.36
2018-07-06T08:32:18.708Z,22.56
2018-07-06T08:35:08.230Z,22.59
2018-07-06T08:38:07.061Z,22.86
2018-07-06T08:40:37.998Z,22.29
2018-07-06T08:43:06.857Z,22.13
2018-07-06T08:45:35.636Z,21.97
2018-07-06T08:48:04.260Z,22.04
2018-07-06T08:50:33.072Z,21.95
2018-07-06T08:53:06.522Z,21.75
2018-07-06T08:55:35.456Z,22.19
2018-07-06T08:58:04.153Z,22.51
2018-07-06T09:00:32.708Z,22.86
2018-07-06T09:03:01.465Z,23.15
2018-07-06T09:05:30.169Z,23.32
2018-07-06T09:07:58.704Z,23.45
2018-07-06T09:10:27.148Z,23.60
2018-07-06T09:12:55.895Z,23.58
2018-07-06T09:15:24.348Z,22.98
2018-07-06T09:17:54.177Z,22.64
2018-07-06T09:20:26.599Z,22.64
2018-07-06T09:22:55.478Z,22.26
2018-07-06T09:25:24.168Z,22.02
2018-07-06T09:27:52.663Z,22.18
2018-07-06T09:30:21.247Z,22.40
2018-07-06T09:32:49.999Z,22.49
2018-07-06T09:35:18.574Z,22.56
2018-07-06T09:37:46.825Z,22.62
2018-07-06T09:40:15.576Z,22.94
2018-07-06T09:42:44.299Z,23.27
2018-07-06T09:45:12.776Z,23.56
2018-07-06T09:47:41.172Z,23.68
2018-07-06T09:50:09.524Z,23.71
2018-07-06T09:52:37.873Z,23.78
2018-07-06T09:55:06.472Z,23.77
2018-07-06T09:57:34.883Z,23.76
2018-07-06T10:00:05.426Z,23.80
2018-07-06T10:02:33.718Z,23.61
2018-07-06T10:05:02.249Z,23.65
2018-07-06T10:07:30.636Z,23.48
2018-07-06T10:09:59.204Z,23.85
2018-07-06T10:12:27.905Z,24.09
2018-07-06T10:14:56.281Z,24.19
2018-07-06T10:17:24.860Z,24.43
2018-07-06T10:19:53.357Z,24.26
2018-07-06T10:22:22.020Z,24.06
2018-07-06T10:24:51.139Z,23.85
2018-07-06T10:27:20.081Z,23.82
2018-07-06T10:29:59.185Z,23.73
2018-07-06T10:32:28.649Z,23.79
2018-07-06T10:34:58.521Z,23.28
2018-07-06T10:37:27.911Z,23.47
2018-07-06T10:39:56.479Z,23.73
2018-07-06T10:42:24.941Z,24.08
2018-07-06T10:44:53.815Z,24.36
2018-07-06T10:47:22.406Z,24.58
2018-07-06T10:49:51.259Z,24.73
2018-07-06T10:52:19.751Z,24.87
2018-07-06T10:54:48.703Z,25.04
2018-07-06T10:57:17.490Z,25.14
2018-07-06T10:59:46.428Z,24.77
2018-07-06T11:02:14.989Z,24.63
2018-07-06T11:04:43.449Z,24.58
2018-07-06T11:07:12.012Z,24.83
2018-07-06T11:09:40.687Z,24.75
2018-07-06T11:12:09.440Z,24.94
2018-07-06T11:14:37.888Z,24.99
2018-07-06T11:17:06.455Z,24.86
2018-07-06T11:19:35.182Z,25.05
2018-07-06T11:22:03.523Z,25.14
2018-07-06T11:24:33.354Z,25.15
2018-07-06T11:27:02.006Z,25.08
2018-07-06T11:29:30.562Z,25.00
2018-07-06T11:31:59.143Z,24.85
2018-07-06T11:34:27.826Z,25.02
2018-07-06T11:36:56.366Z,25.13
2018-07-06T11:39:25.062Z,25.33
2018-07-06T11:41:53.556Z,25.14
2018-07-06T11:44:22.134Z,24.77
2018-07-06T11:46:51.070Z,24.98
2018-07-06T11:49:19.779Z,25.26
2018-07-06T11:51:48.465Z,25.38
2018-07-06T11:54:17.249Z,25.57
2018-07-06T11:56:45.818Z,25.72
2018-07-06T11:59:14.664Z,25.81
2018-07-06T12:01:43.429Z,25.90
2018-07-06T12:04:12.334Z,25.94
2018-07-06T12:06:41.021Z,25.63
2018-07-06T12:09:09.597Z,25.83
2018-07-06T12:11:38.170Z,25.61
2018-07-06T12:14:06.996Z,25.70
2018-07-06T12:16:35.901Z,25.93
2018-07-06T12:19:04.597Z,26.05
2018-07-06T12:21:35.503Z,26.22
2018-07-06T12:24:04.258Z,26.42
2018-07-06T12:26:36.695Z,26.71
2018-07-06T12:29:06.427Z,26.85
2018-07-06T12:31:41.793Z,26.36
2018-07-06T12:34:15.904Z,26.28
2018-07-06T12:36:47.001Z,26.56
2018-07-06T12:39:21.156Z,26.56
2018-07-06T12:41:53.333Z,26.45
2018-07-06T12:44:21.773Z,26.48
2018-07-06T12:46:50.385Z,26.53
2018-07-06T12:49:18.936Z,26.84
2018-07-06T12:51:47.492Z,26.76
2018-07-06T12:54:16.142Z,26.50
2018-07-06T12:56:44.655Z,26.35
2018-07-06T12:59:13.055Z,26.55
2018-07-06T13:01:41.720Z,26.57
2018-07-06T13:04:11.829Z,26.56
2018-07-06T13:06:40.811Z,26.45
2018-07-06T13:09:10.304Z,26.30
2018-07-06T13:11:39.333Z,26.28
2018-07-06T13:14:07.852Z,26.27
2018-07-06T13:16:36.568Z,26.26
2018-07-06T13:19:05.193Z,26.15
2018-07-06T13:21:35.779Z,25.66
2018-07-06T13:24:04.684Z,25.62
2018-07-06T13:26:34.126Z,25.70
2018-07-06T13:29:04.612Z,25.77
2018-07-06T13:31:33.190Z,25.70
2018-07-06T13:34:01.590Z,26.26
2018-07-06T13:36:30.156Z,27.01
2018-07-06T13:38:58.960Z,27.38
2018-07-06T13:41:27.892Z,28.09
2018-07-06T13:43:57.067Z,28.65
2018-07-06T13:46:25.667Z,28.99
2018-07-06T13:48:54.124Z,28.55
2018-07-06T13:51:22.753Z,29.26
2018-07-06T13:53:51.448Z,29.28
2018-07-06T13:56:19.964Z,29.28
2018-07-06T13:58:48.694Z,29.16
2018-07-06T14:01:17.176Z,29.17
2018-07-06T14:03:45.625Z,29.33
2018-07-06T14:06:14.199Z,28.70
2018-07-06T14:08:42.777Z,28.52
2018-07-06T14:11:11.369Z,29.20
2018-07-06T14:13:39.928Z,30.04
2018-07-06T14:16:08.583Z,30.42
2018-07-06T14:18:36.853Z,30.16
2018-07-06T14:21:05.875Z,30.06
2018-07-06T14:23:34.494Z,28.95
2018-07-06T14:26:04.303Z,27.88
2018-07-06T14:28:35.841Z,27.45
2018-07-06T14:31:05.907Z,27.21
2018-07-06T14:33:34.823Z,26.98
2018-07-06T14:36:03.287Z,27.08
2018-07-06T14:38:38.458Z,27.74
2018-07-06T14:41:07.360Z,28.03
2018-07-06T14:43:37.149Z,28.33
2018-07-06T14:46:06.253Z,27.82
2018-07-06T14:48:39.551Z,27.14
2018-07-06T14:51:08.632Z,27.25
2018-07-06T14:53:37.456Z,27.72
2018-07-06T14:56:05.927Z,27.28
2018-07-06T14:58:34.622Z,27.66
2018-07-06T15:01:04.164Z,28.04
2018-07-06T15:03:32.620Z,28.28
2018-07-06T15:06:04.274Z,28.48
2018-07-06T15:08:32.870Z,28.23
2018-07-06T15:11:01.841Z,27.46
2018-07-06T15:13:33.137Z,27.26
2018-07-06T15:16:01.683Z,27.36
2018-07-06T15:18:30.523Z,27.75
2018-07-06T15:20:58.855Z,28.07
2018-07-06T15:23:27.305Z,28.53
2018-07-06T15:25:55.894Z,28.47
2018-07-06T15:28:24.359Z,28.02
2018-07-06T15:30:53.073Z,27.25
2018-07-06T15:33:28.215Z,27.23
2018-07-06T15:35:56.916Z,27.23
2018-07-06T15:38:25.571Z,27.04
2018-07-06T15:40:54.282Z,26.80
2018-07-06T15:43:23.105Z,26.89
2018-07-06T15:45:51.620Z,26.87
2018-07-06T15:48:20.120Z,26.72
2018-07-06T15:50:48.745Z,26.96
2018-07-06T15:53:17.187Z,26.77
2018-07-06T15:55:45.778Z,27.00
2018-07-06T15:58:14.597Z,27.20
2018-07-06T16:00:43.089Z,27.42
2018-07-06T16:03:11.493Z,27.27
2018-07-06T16:05:39.883Z,27.12
2018-07-06T16:08:08.200Z,27.10
2018-07-06T16:10:36.673Z,27.04
2018-07-06T16:13:05.282Z,27.18
2018-07-06T16:15:33.908Z,27.25
2018-07-06T16:18:02.629Z,27.17
2018-07-06T16:20:31.161Z,27.31
2018-07-06T16:22:59.773Z,27.09
2018-07-06T16:25:28.323Z,26.70
2018-07-06T16:27:57.878Z,26.86
2018-07-06T16:30:26.706Z,26.78
2018-07-06T16:32:55.430Z,26.71
2018-07-06T16:35:23.903Z,26.69
2018-07-06T16:37:52.108Z,26.77
2018-07-06T16:40:20.929Z,26.71
2018-07-06T16:42:49.864Z,26.82
2018-07-06T16:45:18.202Z,26.69
2018-07-06T16:47:46.628Z,26.82
2018-07-06T16:50:15.069Z,26.74
2018-07-06T16:52:43.756Z,26.66
2018-07-06T16:55:12.713Z,26.68
2018-07-06T16:57:41.585Z,26.56
2018-07-06T17:00:10.250Z,26.43
2018-07-06T17:02:38.678Z,26.58
2018-07-06T17:05:07.373Z,26.45
2018-07-06T17:07:36.053Z,26.23
2018-07-06T17:10:04.605Z,26.37
2018-07-06T17:12:33.008Z,26.31
2018-07-06T17:15:01.657Z,26.19
2018-07-06T17:17:30.213Z,26.29
2018-07-06T17:19:58.721Z,26.05
2018-07-06T17:22:27.187Z,26.05
2018-07-06T17:24:55.873Z,26.07
2018-07-06T17:27:24.325Z,26.06
2018-07-06T17:29:52.931Z,26.10
2018-07-06T17:32:21.682Z,26.14
2018-07-06T17:34:50.679Z,26.04
2018-07-06T17:37:19.445Z,26.16
2018-07-06T17:39:47.866Z,26.32
2018-07-06T17:42:16.424Z,26.22
2018-07-06T17:44:44.950Z,26.11
2018-07-06T17:47:13.621Z,26.09
2018-07-06T17:49:42.169Z,26.12
2018-07-06T17:52:11.016Z,26.12
2018-07-06T17:54:39.904Z,26.14
2018-07-06T17:57:08.431Z,25.94
2018-07-06T17:59:37.000Z,26.03
2018-07-06T18:02:05.806Z,25.88
2018-07-06T18:04:34.486Z,25.96
2018-07-06T18:07:03.335Z,25.91
2018-07-06T18:09:32.016Z,25.82
2018-07-06T18:12:00.646Z,25.77
2018-07-06T18:14:29.365Z,25.83
2018-07-06T18:16:57.926Z,25.77
2018-07-06T18:19:26.618Z,25.78
2018-07-06T18:21:56.277Z,25.69
2018-07-06T18:24:25.193Z,25.76
2018-07-06T18:26:53.774Z,25.70
2018-07-06T18:29:22.200Z,25.69
2018-07-06T18:31:50.932Z,25.71
2018-07-06T18:34:19.483Z,25.79
2018-07-06T18:36:48.239Z,25.64
2018-07-06T18:39:16.921Z,25.61
2018-07-06T18:41:45.542Z,25.65
2018-07-06T18:44:14.018Z,25.53
2018-07-06T18:46:42.533Z,25.48
2018-07-06T18:49:11.113Z,25.47
2018-07-06T18:51:40.017Z,25.50
2018-07-06T18:54:08.893Z,25.48
2018-07-06T18:56:37.574Z,25.38
2018-07-06T18:59:06.498Z,25.42
2018-07-06T19:01:35.206Z,25.35
2018-07-06T19:04:03.737Z,25.28
2018-07-06T19:06:32.576Z,25.24
2018-07-06T19:09:01.236Z,25.22
2018-07-06T19:11:29.892Z,25.19
2018-07-06T19:13:58.492Z,25.20
2018-07-06T19:16:27.349Z,25.18
2018-07-06T19:18:56.265Z,25.16
2018-07-06T19:21:25.378Z,25.18
2018-07-06T19:23:54.343Z,25.04
2018-07-06T19:26:23.303Z,24.98
2018-07-06T19:28:52.066Z,24.96
2018-07-06T19:31:21.062Z,24.86
2018-07-06T19:33:49.934Z,24.85
2018-07-06T19:36:18.655Z,24.81
2018-07-06T19:38:47.742Z,24.80
2018-07-06T19:41:16.456Z,24.69
2018-07-06T19:43:45.228Z,24.64
2018-07-06T19:46:14.078Z,24.64
2018-07-06T19:48:42.940Z,24.58
2018-07-06T19:51:11.655Z,24.49
2018-07-06T19:53:40.253Z,24.52
2018-07-06T19:56:08.861Z,24.43
2018-07-06T19:58:37.497Z,24.42
2018-07-06T20:01:07.170Z,24.28
2018-07-06T20:03:36.137Z,24.31
2018-07-06T20:06:05.653Z,24.33
2018-07-06T20:08:34.375Z,24.35
2018-07-06T20:11:03.023Z,24.25
2018-07-06T20:13:31.402Z,24.26
2018-07-06T20:15:59.816Z,24.26
2018-07-06T20:18:28.277Z,24.23
2018-07-06T20:20:57.466Z,24.24
2018-07-06T20:23:26.063Z,24.24
2018-07-06T20:25:54.608Z,24.21
2018-07-06T20:28:23.148Z,24.09
2018-07-06T20:30:51.595Z,24.09
2018-07-06T20:33:20.491Z,24.14
2018-07-06T20:35:49.261Z,24.08
2018-07-06T20:38:17.715Z,24.00
2018-07-06T20:40:46.341Z,23.93
2018-07-06T20:43:15.074Z,23.87
2018-07-06T20:45:43.792Z,23.79
2018-07-06T20:48:12.383Z,23.67
2018-07-06T20:50:40.784Z,23.74
2018-07-06T20:53:09.276Z,23.69
2018-07-06T20:55:37.949Z,23.63
2018-07-06T20:58:06.493Z,23.69
2018-07-06T21:00:35.133Z,23.63
2018-07-06T21:03:03.813Z,23.62
2018-07-06T21:05:32.672Z,23.55
2018-07-06T21:08:01.564Z,23.49
2018-07-06T21:10:29.991Z,23.43
2018-07-06T21:12:58.457Z,23.39
2018-07-06T21:15:27.156Z,23.44
2018-07-06T21:17:55.828Z,23.37
2018-07-06T21:20:24.553Z,23.36
2018-07-06T21:22:53.116Z,23.31
2018-07-06T21:25:21.557Z,23.26
2018-07-06T21:27:50.028Z,23.21
2018-07-06T21:30:18.426Z,23.09
2018-07-06T21:32:46.731Z,23.15
2018-07-06T21:35:15.477Z,23.11
2018-07-06T21:37:43.955Z,23.14
2018-07-06T21:40:12.493Z,23.02
2018-07-06T21:42:41.172Z,23.00
2018-07-06T21:45:09.870Z,22.92
2018-07-06T21:47:38.555Z,22.94
2018-07-06T21:50:07.207Z,22.85
2018-07-06T21:52:35.820Z,22.76
2018-07-06T21:55:04.383Z,22.85
2018-07-06T21:57:33.444Z,22.73
2018-07-06T22:00:02.069Z,22.76
2018-07-06T22:02:30.597Z,22.62
2018-07-06T22:04:59.208Z,22.72
2018-07-06T22:07:27.836Z,22.75
2018-07-06T22:09:56.660Z,22.70
2018-07-06T22:12:25.588Z,22.67
2018-07-06T22:14:54.377Z,22.68
2018-07-06T22:17:22.882Z,22.71
2018-07-06T22:19:51.850Z,22.60
2018-07-06T22:22:20.299Z,22.60
2018-07-06T22:24:49.013Z,22.56
2018-07-06T22:27:17.511Z,22.49
2018-07-06T22:29:46.136Z,22.50
2018-07-06T22:32:15.773Z,22.41
2018-07-06T22:34:45.273Z,22.39
2018-07-06T22:37:13.965Z,22.31
2018-07-06T22:39:43.677Z,22.40
2018-07-06T22:42:12.246Z,22.32
2018-07-06T22:44:40.679Z,22.26
2018-07-06T22:47:09.485Z,22.27
2018-07-06T22:49:38.243Z,22.16
2018-07-06T22:52:07.068Z,22.21
2018-07-06T22:54:35.988Z,22.12
2018-07-06T22:57:04.511Z,22.08
2018-07-06T22:59:33.118Z,21.98
2018-07-06T23:02:01.803Z,21.88
2018-07-06T23:04:30.272Z,21.78
2018-07-06T23:06:58.817Z,21.73
2018-07-06T23:09:27.296Z,21.58
2018-07-06T23:11:56.080Z,21.65
2018-07-06T23:14:24.539Z,21.59
2018-07-06T23:16:53.032Z,21.59
2018-07-06T23:19:21.436Z,21.58
2018-07-06T23:21:49.953Z,21.52
2018-07-06T23:24:18.529Z,21.49
2018-07-06T23:26:47.049Z,21.55
2018-07-06T23:29:15.677Z,21.47
2018-07-06T23:31:43.972Z,21.51
2018-07-06T23:34:12.528Z,21.53
2018-07-06T23:36:41.006Z,21.47
2018-07-06T23:39:09.687Z,21.53
2018-07-06T23:41:38.202Z,21.46
2018-07-06T23:44:06.760Z,21.42
2018-07-06T23:46:35.314Z,21.38
2018-07-06T23:49:03.884Z,21.32
2018-07-06T23:51:32.280Z,21.22
2018-07-06T23:54:00.864Z,21.16
2018-07-06T23:56:29.537Z,21.16
2018-07-06T23:58:58.209Z,21.16
